createdAt,value
2022-08-22T00:01:02.952Z,76.69
2022-08-22T00:04:37.775Z,77.07
2022-08-22T00:08:08.506Z,76.85
2022-08-22T00:11:39.066Z,76.95
2022-08-22T00:15:08.028Z,77.57
2022-08-22T00:18:46.802Z,77.17
2022-08-22T00:22:18.770Z,78.12
2022-08-22T00:25:48.914Z,77.85
2022-08-22T00:29:15.262Z,78.31
2022-08-22T00:32:43.416Z,78.50
2022-08-22T00:36:26.993Z,78.79
2022-08-22T00:39:54.375Z,78.59
2022-08-22T00:43:58.424Z,77.98
2022-08-22T00:47:41.092Z,78.03
2022-08-22T00:51:35.566Z,77.25
2022-08-22T00:55:18.756Z,77.63
2022-08-22T00:59:10.602Z,77.62
2022-08-22T01:03:16.462Z,78.46
2022-08-22T01:06:54.159Z,78.47
2022-08-22T01:10:42.612Z,79.57
2022-08-22T01:14:20.980Z,79.88
2022-08-22T01:18:30.578Z,79.82
2022-08-22T01:22:16.741Z,80.17
2022-08-22T01:26:17.245Z,80.50
2022-08-22T01:30:16.413Z,80.14
2022-08-22T01:34:14.064Z,80.44
2022-08-22T01:37:52.219Z,81.04
2022-08-22T01:41:41.242Z,80.17
2022-08-22T01:45:34.334Z,80.25
2022-08-22T01:49:13.113Z,80.25
2022-08-22T01:52:41.470Z,80.40
2022-08-22T01:56:08.345Z,79.88
2022-08-22T01:59:39.758Z,79.00
2022-08-22T02:03:13.563Z,79.02
2022-08-22T02:06:45.695Z,78.51
2022-08-22T02:10:19.608Z,77.90
2022-08-22T02:13:55.482Z,77.85
2022-08-22T02:17:22.318Z,78.34
2022-08-22T02:21:04.399Z,78.31
2022-08-22T02:24:36.339Z,78.16
2022-08-22T02:28:06.952Z,78.24
2022-08-22T02:31:43.870Z,78.28
2022-08-22T02:35:12.043Z,78.27
2022-08-22T02:38:39.897Z,78.51
2022-08-22T02:42:15.936Z,79.00
2022-08-22T02:45:45.126Z,78.53
2022-08-22T02:49:13.337Z,78.11
2022-08-22T02:52:48.155Z,78.47
2022-08-22T02:56:14.289Z,79.02
2022-08-22T02:59:39.342Z,78.23
2022-08-22T03:03:07.191Z,79.00
2022-08-22T03:06:37.575Z,78.68
2022-08-22T03:10:09.604Z,79.11
2022-08-22T03:13:45.118Z,79.53
2022-08-22T03:17:13.234Z,79.31
2022-08-22T03:20:47.750Z,79.64
2022-08-22T03:24:22.306Z,78.75
2022-08-22T03:27:51.562Z,79.13
2022-08-22T03:31:15.930Z,79.16
2022-08-22T03:34:38.220Z,78.67
2022-08-22T03:38:19.800Z,78.71
2022-08-22T03:42:18.017Z,78.60
2022-08-22T03:46:23.533Z,78.37
2022-08-22T03:50:11.869Z,78.35
2022-08-22T03:53:54.876Z,77.43
2022-08-22T03:58:01.254Z,78.31
2022-08-22T04:01:52.699Z,78.64
2022-08-22T04:05:45.029Z,79.04
2022-08-22T04:09:45.313Z,79.09
2022-08-22T04:13:40.249Z,78.96
2022-08-22T04:17:31.555Z,79.75
2022-08-22T04:21:11.007Z,80.00
2022-08-22T04:24:52.002Z,80.28
2022-08-22T04:28:23.399Z,80.26
2022-08-22T04:31:48.810Z,79.91
2022-08-22T04:35:17.707Z,80.20
2022-08-22T04:38:43.397Z,80.22
2022-08-22T04:42:31.636Z,80.63
2022-08-22T04:46:03.686Z,80.55
2022-08-22T04:49:33.483Z,80.66
2022-08-22T04:53:10.788Z,80.71
2022-08-22T04:56:44.049Z,81.29
2022-08-22T05:00:11.694Z,81.15
2022-08-22T05:03:39.940Z,82.13
2022-08-22T05:07:09.562Z,82.11
2022-08-22T05:10:37.646Z,81.83
2022-08-22T05:14:04.134Z,82.52
2022-08-22T05:17:30.232Z,81.78
2022-08-22T05:20:54.206Z,81.23
2022-08-22T05:24:22.035Z,81.43
2022-08-22T05:27:56.960Z,80.78
2022-08-22T05:31:26.349Z,81.29
2022-08-22T05:34:51.831Z,80.91
2022-08-22T05:38:17.694Z,81.83
2022-08-22T05:41:41.740Z,82.01
2022-08-22T05:45:06.818Z,81.64
2022-08-22T05:48:42.118Z,82.23
2022-08-22T05:52:16.418Z,81.55
2022-08-22T05:55:47.686Z,82.34
2022-08-22T05:59:23.189Z,82.75
2022-08-22T06:02:55.600Z,83.16
2022-08-22T06:06:20.919Z,82.86
2022-08-22T06:10:09.861Z,82.76
2022-08-22T06:13:37.219Z,83.47
2022-08-22T06:17:10.305Z,83.17
2022-08-22T06:20:37.671Z,83.38
2022-08-22T06:24:01.610Z,83.24
2022-08-22T06:27:31.294Z,83.23
2022-08-22T06:30:56.220Z,83.70
2022-08-22T06:34:27.554Z,83.20
2022-08-22T06:37:50.243Z,83.37
2022-08-22T06:41:12.363Z,83.07
2022-08-22T06:44:40.028Z,83.03
2022-08-22T06:48:16.196Z,82.90
2022-08-22T06:51:40.178Z,82.16
2022-08-22T06:55:07.441Z,82.18
2022-08-22T06:58:34.020Z,81.97
2022-08-22T07:02:04.374Z,81.55
2022-08-22T07:05:30.493Z,81.01
2022-08-22T07:08:55.988Z,80.67
2022-08-22T07:12:20.229Z,80.38
2022-08-22T07:15:44.722Z,80.09
2022-08-22T07:19:08.591Z,79.77
2022-08-22T07:22:33.290Z,79.52
2022-08-22T07:26:00.357Z,79.40
2022-08-22T07:29:29.986Z,79.26
2022-08-22T07:33:00.694Z,79.34
2022-08-22T07:36:48.198Z,78.92
2022-08-22T07:40:19.993Z,78.70
2022-08-22T07:43:45.940Z,77.57
2022-08-22T07:47:15.566Z,77.82
2022-08-22T07:50:48.452Z,77.65
2022-08-22T07:54:15.571Z,77.25
2022-08-22T07:57:41.210Z,77.03
2022-08-22T08:01:03.435Z,76.76
2022-08-22T08:04:29.548Z,76.63
2022-08-22T08:07:55.214Z,76.55
2022-08-22T08:11:20.504Z,75.32
2022-08-22T08:14:46.591Z,75.67
2022-08-22T08:18:13.609Z,75.37
2022-08-22T08:21:39.943Z,75.10
2022-08-22T08:25:03.530Z,74.95
2022-08-22T08:28:38.052Z,75.23
2022-08-22T08:32:02.275Z,74.66
2022-08-22T08:35:27.864Z,74.46
2022-08-22T08:38:58.703Z,74.25
2022-08-22T08:43:11.958Z,72.20
2022-08-22T08:47:01.132Z,71.41
2022-08-22T08:50:37.200Z,70.68
2022-08-22T08:54:17.731Z,68.84
2022-08-22T08:57:59.524Z,66.95
2022-08-22T09:01:49.067Z,66.80
2022-08-22T09:05:43.795Z,66.36
2022-08-22T09:09:20.422Z,66.19
2022-08-22T09:13:12.154Z,66.19
2022-08-22T09:16:51.805Z,65.74
2022-08-22T09:20:48.194Z,64.18
2022-08-22T09:24:42.531Z,63.64
2022-08-22T09:28:14.885Z,63.53
2022-08-22T09:31:52.635Z,62.66
2022-08-22T09:35:27.109Z,62.73
2022-08-22T09:38:58.390Z,62.60
2022-08-22T09:42:27.437Z,62.81
2022-08-22T09:46:02.034Z,62.98
2022-08-22T09:49:33.827Z,64.34
2022-08-22T09:53:15.239Z,62.63
2022-08-22T09:56:51.227Z,58.78
2022-08-22T10:00:24.212Z,58.15
2022-08-22T10:04:28.109Z,59.31
2022-08-22T10:08:05.326Z,58.35
2022-08-22T10:11:31.937Z,58.25
2022-08-22T10:15:11.230Z,59.07
2022-08-22T10:18:52.560Z,58.13
2022-08-22T10:22:30.389Z,57.91
2022-08-22T10:25:56.896Z,57.47
2022-08-22T10:29:46.758Z,57.11
2022-08-22T10:33:15.694Z,57.25
2022-08-22T10:36:46.301Z,55.89
2022-08-22T10:40:14.390Z,55.96
2022-08-22T10:43:44.642Z,56.34
2022-08-22T10:47:09.554Z,55.68
2022-08-22T10:50:37.592Z,55.68
2022-08-22T10:54:20.145Z,54.70
2022-08-22T10:58:00.223Z,54.93
2022-08-22T11:01:37.718Z,54.36
2022-08-22T11:05:33.744Z,53.96
2022-08-22T11:09:07.844Z,55.27
2022-08-22T11:12:36.570Z,55.20
2022-08-22T11:16:14.867Z,55.24
2022-08-22T11:19:48.323Z,53.15
2022-08-22T11:23:25.437Z,54.16
2022-08-22T11:26:58.901Z,52.17
2022-08-22T11:30:36.244Z,52.97
2022-08-22T11:34:14.710Z,53.43
2022-08-22T11:37:54.833Z,52.99
2022-08-22T11:41:25.220Z,53.65
2022-08-22T11:44:54.733Z,54.54
2022-08-22T11:48:24.715Z,52.86
2022-08-22T11:52:28.353Z,54.33
2022-08-22T11:56:05.494Z,54.49
2022-08-22T11:59:34.015Z,53.83
2022-08-22T12:03:27.936Z,53.64
2022-08-22T12:07:03.992Z,53.35
2022-08-22T12:10:31.515Z,53.71
2022-08-22T12:14:03.934Z,52.76
2022-08-22T12:18:25.420Z,53.85
2022-08-22T12:22:08.646Z,53.74
2022-08-22T12:25:49.481Z,52.60
2022-08-22T12:29:34.161Z,52.92
2022-08-22T12:33:29.872Z,52.88
2022-08-22T12:37:15.673Z,52.96
2022-08-22T12:40:52.378Z,52.25
2022-08-22T12:44:35.519Z,52.16
2022-08-22T12:48:11.958Z,52.45
2022-08-22T12:51:49.534Z,52.89
2022-08-22T12:55:36.927Z,51.71
2022-08-22T12:59:23.334Z,52.73
2022-08-22T13:02:46.412Z,53.60
2022-08-22T13:06:41.563Z,53.72
2022-08-22T13:10:36.652Z,52.30
2022-08-22T13:14:02.400Z,52.56
2022-08-22T13:17:26.288Z,53.01
2022-08-22T13:20:51.635Z,53.27
2022-08-22T13:24:22.481Z,52.83
2022-08-22T13:27:51.261Z,52.31
2022-08-22T13:31:24.643Z,52.57
2022-08-22T13:34:51.993Z,53.10
2022-08-22T13:38:25.467Z,53.29
2022-08-22T13:41:51.702Z,52.87
2022-08-22T13:45:18.793Z,52.15
2022-08-22T13:48:49.839Z,51.87
2022-08-22T13:52:29.161Z,51.49
2022-08-22T13:55:57.009Z,51.37
2022-08-22T13:59:49.689Z,52.06
2022-08-22T14:03:19.308Z,51.35
2022-08-22T14:06:51.547Z,52.07
2022-08-22T14:10:23.063Z,50.87
2022-08-22T14:13:48.769Z,51.53
2022-08-22T14:17:16.609Z,51.17
2022-08-22T14:20:42.870Z,51.71
2022-08-22T14:24:12.985Z,51.42
2022-08-22T14:27:39.725Z,51.65
2022-08-22T14:31:08.462Z,50.27
2022-08-22T14:34:32.032Z,50.26
2022-08-22T14:38:17.369Z,50.20
2022-08-22T14:41:52.659Z,49.72
2022-08-22T14:45:22.075Z,49.43
2022-08-22T14:49:04.026Z,50.03
2022-08-22T14:52:37.442Z,50.51
2022-08-22T14:56:09.054Z,50.95
2022-08-22T14:59:40.254Z,50.31
2022-08-22T15:03:21.845Z,49.63
2022-08-22T15:06:52.223Z,49.71
2022-08-22T15:10:26.787Z,48.93
2022-08-22T15:14:00.797Z,49.67
2022-08-22T15:17:39.258Z,49.55
2022-08-22T15:21:06.826Z,50.20
2022-08-22T15:24:31.402Z,50.07
2022-08-22T15:27:57.298Z,49.84
2022-08-22T15:31:20.623Z,50.92
2022-08-22T15:34:45.018Z,50.26
2022-08-22T15:38:11.316Z,50.08
2022-08-22T15:41:44.680Z,50.50
2022-08-22T15:45:08.736Z,50.56
2022-08-22T15:48:36.307Z,50.68
2022-08-22T15:52:14.541Z,51.59
2022-08-22T15:55:37.211Z,50.85
2022-08-22T15:59:48.021Z,50.59
2022-08-22T16:03:26.800Z,50.75
2022-08-22T16:06:57.964Z,50.17
2022-08-22T16:10:33.226Z,50.06
2022-08-22T16:14:17.331Z,49.69
2022-08-22T16:17:47.167Z,50.64
2022-08-22T16:21:15.886Z,50.51
2022-08-22T16:25:03.616Z,50.36
2022-08-22T16:28:56.410Z,50.55
2022-08-22T16:32:13.490Z,51.03
2022-08-22T16:36:26.801Z,51.62
2022-08-22T16:39:51.017Z,51.84
2022-08-22T16:43:18.075Z,52.03
2022-08-22T16:46:44.922Z,51.88
2022-08-22T16:50:23.927Z,51.92
2022-08-22T16:54:33.827Z,50.39
2022-08-22T16:58:10.182Z,49.58
2022-08-22T17:01:45.248Z,48.79
2022-08-22T17:05:36.351Z,49.10
2022-08-22T17:09:12.977Z,49.05
2022-08-22T17:12:50.510Z,48.94
2022-08-22T17:16:24.586Z,49.40
2022-08-22T17:20:02.917Z,49.91
2022-08-22T17:23:34.822Z,50.36
2022-08-22T17:27:02.031Z,50.50
2022-08-22T17:30:31.312Z,51.14
2022-08-22T17:34:03.487Z,52.17
2022-08-22T17:37:39.936Z,52.83
2022-08-22T17:41:12.040Z,53.92
2022-08-22T17:44:44.129Z,54.37
2022-08-22T17:48:16.381Z,55.30
2022-08-22T17:51:47.254Z,55.71
2022-08-22T17:55:17.973Z,56.27
2022-08-22T17:58:47.230Z,56.69
2022-08-22T18:02:16.761Z,57.42
2022-08-22T18:05:53.157Z,57.98
2022-08-22T18:09:27.388Z,58.61
2022-08-22T18:12:57.821Z,59.67
2022-08-22T18:16:27.098Z,59.73
2022-08-22T18:20:03.495Z,60.05
2022-08-22T18:23:35.704Z,60.41
2022-08-22T18:27:07.202Z,60.43
2022-08-22T18:30:36.704Z,60.77
2022-08-22T18:34:04.171Z,61.06
2022-08-22T18:37:49.467Z,61.15
2022-08-22T18:41:16.891Z,61.31
2022-08-22T18:44:40.228Z,61.07
2022-08-22T18:48:03.478Z,61.85
2022-08-22T18:51:28.738Z,62.74
2022-08-22T18:55:23.902Z,63.50
2022-08-22T18:59:05.078Z,62.56
2022-08-22T19:02:57.745Z,63.22
2022-08-22T19:06:38.358Z,63.57
2022-08-22T19:10:35.419Z,64.23
2022-08-22T19:14:12.244Z,65.71
2022-08-22T19:17:58.718Z,66.56
2022-08-22T19:21:43.582Z,67.44
2022-08-22T19:25:20.909Z,67.95
2022-08-22T19:28:42.906Z,68.24
2022-08-22T19:32:12.956Z,68.49
2022-08-22T19:35:45.235Z,68.51
2022-08-22T19:39:10.038Z,68.82
2022-08-22T19:42:44.079Z,69.67
2022-08-22T19:46:09.522Z,69.74
2022-08-22T19:49:34.526Z,70.16
2022-08-22T19:53:18.427Z,70.12
2022-08-22T19:57:02.744Z,70.22
2022-08-22T20:00:41.667Z,70.14
2022-08-22T20:04:10.273Z,70.42
2022-08-22T20:07:49.870Z,71.08
2022-08-22T20:11:24.915Z,70.96
2022-08-22T20:14:49.120Z,70.58
2022-08-22T20:18:12.457Z,70.78
2022-08-22T20:21:58.068Z,71.06
2022-08-22T20:25:41.525Z,70.90
2022-08-22T20:29:07.985Z,71.24
2022-08-22T20:32:38.439Z,71.60
2022-08-22T20:36:05.187Z,72.07
2022-08-22T20:39:36.930Z,71.92
2022-08-22T20:43:01.718Z,72.48
2022-08-22T20:46:53.192Z,72.64
2022-08-22T20:50:24.156Z,73.08
2022-08-22T20:53:52.794Z,73.41
2022-08-22T20:57:17.535Z,73.54
2022-08-22T21:00:45.820Z,73.88
2022-08-22T21:04:08.455Z,74.66
2022-08-22T21:07:34.771Z,74.63
2022-08-22T21:11:24.727Z,74.79
2022-08-22T21:14:47.141Z,74.94
2022-08-22T21:18:11.146Z,75.15
2022-08-22T21:21:35.543Z,75.40
2022-08-22T21:25:01.434Z,75.58
2022-08-22T21:28:30.367Z,76.03
2022-08-22T21:31:59.120Z,75.70
2022-08-22T21:35:29.531Z,76.39
2022-08-22T21:38:55.053Z,76.10
2022-08-22T21:42:24.810Z,76.56
2022-08-22T21:45:46.934Z,76.63
2022-08-22T21:49:08.998Z,76.76
2022-08-22T21:52:33.013Z,76.90
2022-08-22T21:56:14.169Z,77.34
2022-08-22T21:59:51.918Z,77.49
2022-08-22T22:03:22.581Z,77.44
2022-08-22T22:06:44.375Z,78.06
2022-08-22T22:10:09.302Z,77.94
2022-08-22T22:13:31.749Z,78.26
2022-08-22T22:16:54.984Z,78.67
2022-08-22T22:20:18.830Z,78.79
2022-08-22T22:23:40.734Z,78.77
2022-08-22T22:27:03.724Z,79.10
2022-08-22T22:30:25.413Z,79.44
2022-08-22T22:33:48.394Z,79.61
2022-08-22T22:37:11.950Z,79.73
2022-08-22T22:40:33.955Z,79.82
2022-08-22T22:43:56.310Z,80.09
2022-08-22T22:47:18.249Z,80.54
2022-08-22T22:50:44.053Z,80.38
2022-08-22T22:54:06.313Z,80.92
2022-08-22T22:57:33.030Z,80.90
2022-08-22T23:01:09.071Z,80.91
2022-08-22T23:04:31.503Z,81.27
2022-08-22T23:07:54.627Z,81.49
2022-08-22T23:11:19.679Z,81.38
2022-08-22T23:14:42.174Z,81.17
2022-08-22T23:18:04.437Z,81.51
2022-08-22T23:21:27.945Z,81.89
2022-08-22T23:24:51.835Z,82.07
2022-08-22T23:28:14.190Z,82.05
2022-08-22T23:31:38.378Z,82.05
2022-08-22T23:34:59.957Z,82.19
2022-08-22T23:38:21.986Z,82.08
2022-08-22T23:41:46.844Z,82.20
2022-08-22T23:45:09.194Z,81.95
2022-08-22T23:48:31.209Z,81.90
2022-08-22T23:51:53.450Z,82.07
2022-08-22T23:55:15.391Z,82.01
2022-08-22T23:58:38.494Z,82.39
